createdAt,value
2018-10-19T00:00:44.249Z,7.48
2018-10-19T00:01:44.225Z,7.43
2018-10-19T00:02:44.237Z,7.38
2018-10-19T00:03:44.200Z,7.31
2018-10-19T00:04:44.188Z,7.32
2018-10-19T00:05:44.170Z,7.29
2018-10-19T00:06:44.193Z,7.21
2018-10-19T00:07:44.181Z,7.25
2018-10-19T00:08:44.144Z,7.29
2018-10-19T00:09:44.132Z,7.28
2018-10-19T00:10:44.132Z,7.28
2018-10-19T00:11:44.109Z,7.21
2018-10-19T00:12:44.156Z,7.17
2018-10-19T00:13:44.248Z,7.13
2018-10-19T00:14:44.112Z,7.20
2018-10-19T00:15:44.067Z,7.17
2018-10-19T00:16:44.103Z,7.11
2018-10-19T00:17:44.077Z,7.20
2018-10-19T00:18:44.034Z,7.23
2018-10-19T00:19:44.036Z,7.21
2018-10-19T00:20:44.009Z,7.17
2018-10-19T00:21:44.002Z,7.13
2018-10-19T00:22:44.016Z,7.20
2018-10-19T00:23:43.985Z,7.15
2018-10-19T00:24:43.980Z,7.15
2018-10-19T00:25:44.103Z,7.18
2018-10-19T00:26:43.960Z,7.14
2018-10-19T00:27:43.985Z,7.14
2018-10-19T00:28:43.968Z,7.18
2018-10-19T00:29:43.916Z,7.18
2018-10-19T00:30:43.931Z,7.18
2018-10-19T00:31:43.913Z,7.15
2018-10-19T00:32:43.919Z,7.17
2018-10-19T00:33:43.887Z,7.00
2018-10-19T00:34:43.900Z,7.00
2018-10-19T00:35:43.850Z,6.99
2018-10-19T00:36:43.896Z,6.96
2018-10-19T00:37:43.859Z,6.89
2018-10-19T00:38:43.820Z,6.93
2018-10-19T00:39:44.643Z,6.85
2018-10-19T00:40:43.831Z,6.74
2018-10-19T00:41:43.789Z,6.72
2018-10-19T00:42:43.775Z,6.60
2018-10-19T00:43:43.808Z,6.51
2018-10-19T00:44:43.756Z,6.54
2018-10-19T00:45:43.744Z,6.52
2018-10-19T00:46:43.759Z,6.51
2018-10-19T00:47:43.725Z,6.49
2018-10-19T00:48:43.752Z,6.51
2018-10-19T00:49:43.707Z,6.49
2018-10-19T00:50:43.706Z,6.49
2018-10-19T00:51:43.677Z,6.48
2018-10-19T00:52:43.710Z,6.54
2018-10-19T00:53:43.716Z,6.54
2018-10-19T00:54:43.653Z,6.48
2018-10-19T00:55:43.654Z,6.31
2018-10-19T00:56:43.633Z,6.33
2018-10-19T00:57:43.622Z,6.39
2018-10-19T00:58:43.706Z,6.35
2018-10-19T00:59:43.595Z,6.24
2018-10-19T01:00:43.585Z,6.20
2018-10-19T01:01:43.575Z,6.26
2018-10-19T01:02:43.578Z,6.26
2018-10-19T01:03:43.595Z,6.26
2018-10-19T01:04:43.548Z,6.16
2018-10-19T01:05:43.566Z,6.04
2018-10-19T01:06:43.557Z,6.05
2018-10-19T01:07:43.599Z,5.90
2018-10-19T01:08:43.534Z,5.89
2018-10-19T01:09:43.494Z,5.86
2018-10-19T01:10:43.497Z,5.89
2018-10-19T01:11:43.471Z,5.99
2018-10-19T01:12:43.468Z,6.17
2018-10-19T01:13:43.505Z,6.24
2018-10-19T01:14:43.442Z,6.30
2018-10-19T01:15:43.449Z,6.28
2018-10-19T01:16:43.422Z,6.27
2018-10-19T01:17:44.130Z,6.36
2018-10-19T01:18:43.425Z,6.38
2018-10-19T01:19:43.400Z,6.35
2018-10-19T01:20:43.402Z,6.38
2018-10-19T01:21:43.383Z,6.44
2018-10-19T01:22:43.372Z,6.52
2018-10-19T01:23:43.392Z,6.51
2018-10-19T01:24:43.350Z,6.48
2018-10-19T01:25:43.323Z,6.36
2018-10-19T01:26:44.146Z,6.48
2018-10-19T01:27:43.301Z,6.46
2018-10-19T01:28:43.355Z,6.31
2018-10-19T01:29:43.287Z,6.35
2018-10-19T01:30:43.275Z,6.49
2018-10-19T01:31:43.293Z,6.48
2018-10-19T01:32:43.254Z,6.46
2018-10-19T01:33:43.274Z,6.42
2018-10-19T01:34:43.234Z,6.39
2018-10-19T01:35:43.285Z,6.39
2018-10-19T01:36:43.208Z,6.41
2018-10-19T01:37:43.199Z,6.48
2018-10-19T01:38:43.233Z,6.36
2018-10-19T01:39:43.181Z,6.38
2018-10-19T01:40:43.170Z,6.30
2018-10-19T01:41:43.196Z,6.24
2018-10-19T01:42:43.150Z,6.20
2018-10-19T01:43:43.169Z,6.24
2018-10-19T01:44:43.134Z,6.17
2018-10-19T01:45:43.114Z,6.20
2018-10-19T01:46:43.103Z,6.12
2018-10-19T01:47:43.138Z,6.09
2018-10-19T01:48:43.123Z,5.94
2018-10-19T01:49:43.077Z,6.01
2018-10-19T01:50:43.068Z,5.94
2018-10-19T01:51:43.061Z,5.90
2018-10-19T01:52:43.041Z,5.76
2018-10-19T01:53:43.659Z,5.71
2018-10-19T01:54:43.038Z,5.57
2018-10-19T01:55:43.026Z,5.59
2018-10-19T01:56:43.033Z,5.65
2018-10-19T01:57:42.990Z,5.57
2018-10-19T01:58:43.017Z,5.51
2018-10-19T01:59:42.975Z,5.47
2018-10-19T02:00:42.967Z,5.44
2018-10-19T02:01:42.953Z,5.48
2018-10-19T02:02:42.981Z,5.43
2018-10-19T02:03:42.926Z,5.46
2018-10-19T02:04:42.949Z,5.41
2018-10-19T02:05:42.945Z,5.47
2018-10-19T02:06:42.963Z,5.39
2018-10-19T02:07:42.892Z,5.43
2018-10-19T02:08:42.879Z,5.47
2018-10-19T02:09:42.944Z,5.54
2018-10-19T02:10:42.857Z,5.47
2018-10-19T02:11:42.846Z,5.43
2018-10-19T02:12:42.895Z,5.39
2018-10-19T02:13:42.829Z,5.44
2018-10-19T02:14:42.843Z,5.47
2018-10-19T02:15:42.808Z,5.39
2018-10-19T02:16:42.802Z,5.39
2018-10-19T02:17:42.817Z,5.36
2018-10-19T02:18:42.773Z,5.30
2018-10-19T02:19:42.785Z,5.36
2018-10-19T02:20:42.754Z,5.46
2018-10-19T02:21:42.742Z,5.43
2018-10-19T02:22:42.761Z,5.43
2018-10-19T02:23:42.761Z,5.44
2018-10-19T02:24:42.746Z,5.43
2018-10-19T02:25:42.696Z,5.39
2018-10-19T02:26:42.685Z,5.44
2018-10-19T02:27:42.695Z,5.41
2018-10-19T02:28:42.660Z,5.35
2018-10-19T02:29:42.689Z,5.32
2018-10-19T02:30:42.685Z,5.17
2018-10-19T02:31:42.637Z,5.30
2018-10-19T02:32:42.639Z,5.28
2018-10-19T02:33:42.615Z,5.23
2018-10-19T02:34:43.663Z,5.15
2018-10-19T02:35:42.595Z,5.15
2018-10-19T02:36:42.596Z,5.18
2018-10-19T02:37:42.644Z,5.21
2018-10-19T02:38:42.576Z,5.26
2018-10-19T02:39:42.582Z,5.33
2018-10-19T02:40:42.592Z,5.33
2018-10-19T02:41:42.530Z,5.26
2018-10-19T02:42:42.565Z,5.15
2018-10-19T02:43:42.522Z,5.07
2018-10-19T02:44:42.546Z,5.07
2018-10-19T02:45:42.493Z,4.97
2018-10-19T02:46:42.482Z,4.90
2018-10-19T02:47:42.539Z,4.92
2018-10-19T02:48:42.455Z,4.93
2018-10-19T02:49:42.669Z,4.90
2018-10-19T02:50:42.450Z,4.86
2018-10-19T02:51:42.467Z,4.86
2018-10-19T02:52:42.421Z,4.80
2018-10-19T02:53:42.423Z,4.82
2018-10-19T02:54:42.425Z,4.92
2018-10-19T02:55:42.401Z,5.11
2018-10-19T02:56:42.661Z,5.17
2018-10-19T02:57:42.369Z,5.23
2018-10-19T02:58:42.360Z,5.25
2018-10-19T02:59:42.363Z,5.21
2018-10-19T03:00:42.372Z,5.17
2018-10-19T03:01:42.320Z,5.05
2018-10-19T03:02:42.318Z,5.02
2018-10-19T03:03:42.317Z,4.97
2018-10-19T03:04:42.355Z,4.93
2018-10-19T03:05:42.301Z,4.86
2018-10-19T03:06:42.270Z,4.71
2018-10-19T03:07:42.250Z,4.80
2018-10-19T03:08:42.241Z,4.68
2018-10-19T03:09:42.268Z,4.80
2018-10-19T03:10:42.223Z,4.86
2018-10-19T03:11:42.327Z,4.86
2018-10-19T03:12:42.200Z,4.86
2018-10-19T03:13:42.196Z,4.82
2018-10-19T03:14:42.212Z,4.92
2018-10-19T03:15:42.170Z,4.97
2018-10-19T03:16:42.163Z,4.96
2018-10-19T03:17:42.156Z,4.93
2018-10-19T03:18:42.140Z,4.99
2018-10-19T03:19:42.196Z,4.92
2018-10-19T03:20:42.115Z,4.89
2018-10-19T03:21:42.103Z,4.92
2018-10-19T03:22:42.099Z,4.86
2018-10-19T03:23:42.083Z,4.87
2018-10-19T03:24:42.111Z,4.92
2018-10-19T03:25:42.120Z,4.99
2018-10-19T03:26:42.086Z,5.04
2018-10-19T03:27:42.046Z,5.32
2018-10-19T03:28:42.033Z,5.41
2018-10-19T03:29:42.026Z,5.66
2018-10-19T03:30:42.088Z,5.64
2018-10-19T03:31:42.002Z,5.69
2018-10-19T03:32:42.081Z,5.79
2018-10-19T03:33:41.988Z,5.65
2018-10-19T03:34:42.014Z,5.72
2018-10-19T03:35:41.986Z,5.76
2018-10-19T03:36:41.955Z,5.71
2018-10-19T03:37:41.982Z,5.72
2018-10-19T03:38:41.935Z,5.57
2018-10-19T03:39:41.939Z,5.73
2018-10-19T03:40:41.958Z,5.59
2018-10-19T03:41:42.017Z,5.66
2018-10-19T03:42:41.879Z,5.54
2018-10-19T03:43:41.879Z,5.57
2018-10-19T03:44:41.900Z,5.59
2018-10-19T03:45:41.881Z,5.54
2018-10-19T03:46:41.851Z,5.53
2018-10-19T03:47:41.849Z,5.61
2018-10-19T03:48:41.831Z,5.69
2018-10-19T03:49:41.869Z,5.68
2018-10-19T03:50:41.839Z,5.65
2018-10-19T03:51:41.790Z,5.68
2018-10-19T03:52:41.780Z,5.76
2018-10-19T03:53:41.775Z,5.86
2018-10-19T03:54:41.761Z,5.83
2018-10-19T03:55:41.839Z,5.73
2018-10-19T03:56:41.810Z,5.68
2018-10-19T03:57:41.722Z,5.61
2018-10-19T03:58:41.723Z,5.53
2018-10-19T03:59:41.736Z,5.64
2018-10-19T04:00:41.863Z,5.62
2018-10-19T04:01:41.688Z,5.62
2018-10-19T04:02:41.709Z,5.61
2018-10-19T04:03:41.759Z,5.62
2018-10-19T04:04:41.648Z,5.56
2018-10-19T04:05:41.711Z,5.61
2018-10-19T04:06:41.737Z,5.66
2018-10-19T04:07:41.623Z,5.66
2018-10-19T04:08:41.620Z,5.61
2018-10-19T04:09:41.622Z,5.65
2018-10-19T04:10:41.629Z,5.59
2018-10-19T04:11:41.578Z,5.68
2018-10-19T04:12:41.570Z,5.62
2018-10-19T04:13:41.565Z,5.72
2018-10-19T04:14:41.818Z,5.61
2018-10-19T04:15:41.584Z,5.65
2018-10-19T04:16:41.597Z,5.66
2018-10-19T04:17:41.547Z,5.65
2018-10-19T04:18:41.502Z,5.57
2018-10-19T04:19:41.654Z,5.66
2018-10-19T04:20:41.507Z,5.62
2018-10-19T04:21:41.468Z,5.53
2018-10-19T04:22:41.465Z,5.64
2018-10-19T04:23:41.472Z,5.66
2018-10-19T04:24:41.521Z,5.53
2018-10-19T04:25:41.463Z,5.48
2018-10-19T04:26:41.417Z,5.47
2018-10-19T04:27:41.441Z,5.36
2018-10-19T04:28:41.557Z,5.28
2018-10-19T04:29:41.384Z,5.28
2018-10-19T04:30:41.410Z,5.23
2018-10-19T04:31:41.589Z,5.28
2018-10-19T04:32:41.503Z,5.33
2018-10-19T04:33:41.353Z,5.39
2018-10-19T04:34:41.345Z,5.46
2018-10-19T04:35:41.395Z,5.53
2018-10-19T04:36:41.350Z,5.53
2018-10-19T04:37:41.344Z,5.56
2018-10-19T04:38:41.353Z,5.57
2018-10-19T04:39:41.333Z,5.56
2018-10-19T04:40:41.298Z,5.56
2018-10-19T04:41:41.309Z,5.43
2018-10-19T04:42:41.248Z,5.41
2018-10-19T04:43:41.271Z,5.35
2018-10-19T04:44:41.245Z,5.44
2018-10-19T04:45:41.439Z,5.39
2018-10-19T04:46:41.202Z,5.56
2018-10-19T04:47:41.288Z,5.30
2018-10-19T04:48:41.211Z,5.26
2018-10-19T04:49:41.227Z,5.20
2018-10-19T04:50:41.181Z,5.30
2018-10-19T04:51:41.186Z,5.25
2018-10-19T04:52:41.139Z,5.25
2018-10-19T04:53:41.208Z,5.11
2018-10-19T04:54:41.181Z,5.10
2018-10-19T04:55:41.130Z,5.08
2018-10-19T04:56:41.169Z,5.08
2018-10-19T04:57:41.400Z,5.02
2018-10-19T04:58:41.079Z,5.02
2018-10-19T04:59:41.064Z,4.97
2018-10-19T05:00:41.070Z,4.94
2018-10-19T05:01:41.087Z,4.97
2018-10-19T05:02:41.164Z,4.96
2018-10-19T05:03:41.088Z,4.96
2018-10-19T05:04:41.066Z,4.99
2018-10-19T05:05:41.017Z,5.12
2018-10-19T05:06:41.214Z,5.07
2018-10-19T05:07:41.023Z,5.14
2018-10-19T05:08:40.996Z,5.07
2018-10-19T05:09:40.969Z,5.11
2018-10-19T05:10:40.957Z,5.15
2018-10-19T05:11:40.973Z,5.11
2018-10-19T05:12:41.125Z,5.15
2018-10-19T05:13:40.927Z,5.18
2018-10-19T05:14:40.998Z,5.23
2018-10-19T05:15:40.939Z,5.32
2018-10-19T05:16:40.929Z,5.38
2018-10-19T05:17:41.071Z,5.33
2018-10-19T05:18:40.868Z,5.33
2018-10-19T05:19:40.878Z,5.33
2018-10-19T05:20:40.863Z,5.36
2018-10-19T05:21:40.892Z,5.39
2018-10-19T05:22:40.830Z,5.35
2018-10-19T05:23:40.818Z,5.29
2018-10-19T05:24:40.861Z,5.29
2018-10-19T05:25:40.842Z,5.28
2018-10-19T05:26:40.829Z,5.23
2018-10-19T05:27:40.791Z,5.30
2018-10-19T05:28:40.764Z,5.32
2018-10-19T05:29:40.770Z,5.28
2018-10-19T05:30:40.743Z,5.36
2018-10-19T05:31:40.807Z,5.33
2018-10-19T05:32:40.749Z,5.33
2018-10-19T05:33:40.715Z,5.30
2018-10-19T05:34:40.744Z,5.36
2018-10-19T05:35:40.686Z,5.32
2018-10-19T05:36:40.729Z,5.36
2018-10-19T05:37:40.688Z,5.44
2018-10-19T05:38:40.657Z,5.33
2018-10-19T05:39:40.648Z,5.44
2018-10-19T05:40:40.653Z,5.35
2018-10-19T05:41:40.733Z,5.35
2018-10-19T05:42:40.630Z,5.32
2018-10-19T05:43:40.737Z,5.36
2018-10-19T05:44:40.630Z,5.39
2018-10-19T05:45:40.603Z,5.30
2018-10-19T05:46:40.598Z,5.38
2018-10-19T05:47:40.569Z,5.38
2018-10-19T05:48:40.651Z,5.38
2018-10-19T05:49:40.543Z,5.41
2018-10-19T05:50:40.554Z,5.41
2018-10-19T05:51:40.562Z,5.46
2018-10-19T05:52:40.517Z,5.35
2018-10-19T05:53:40.504Z,5.36
2018-10-19T05:54:40.492Z,5.46
2018-10-19T05:55:40.492Z,5.39
2018-10-19T05:56:40.495Z,5.43
2018-10-19T05:57:40.612Z,5.43
2018-10-19T05:58:40.444Z,5.36
2018-10-19T05:59:40.493Z,5.46
2018-10-19T06:00:40.430Z,5.44
2018-10-19T06:01:40.781Z,5.32
2018-10-19T06:02:40.445Z,5.39
2018-10-19T06:03:40.396Z,5.46
2018-10-19T06:04:40.584Z,5.46
2018-10-19T06:05:40.485Z,5.47
2018-10-19T06:06:40.545Z,5.38
2018-10-19T06:07:40.356Z,5.38
2018-10-19T06:08:40.609Z,5.39
2018-10-19T06:09:40.334Z,5.26
2018-10-19T06:10:40.319Z,5.41
2018-10-19T06:11:40.341Z,5.39
2018-10-19T06:12:40.300Z,5.30
2018-10-19T06:13:40.515Z,5.33
2018-10-19T06:14:40.310Z,5.28
2018-10-19T06:15:40.316Z,5.32
2018-10-19T06:16:40.254Z,5.30
2018-10-19T06:17:40.270Z,5.39
2018-10-19T06:18:40.245Z,5.35
2018-10-19T06:19:40.220Z,5.33
2018-10-19T06:20:40.244Z,5.30
2018-10-19T06:21:40.542Z,5.36
2018-10-19T06:22:40.281Z,5.28
2018-10-19T06:23:40.182Z,5.30
2018-10-19T06:24:40.167Z,5.33
2018-10-19T06:25:40.155Z,5.28
2018-10-19T06:26:40.157Z,5.25
2018-10-19T06:27:40.380Z,5.33
2018-10-19T06:28:40.134Z,5.29
2018-10-19T06:29:40.316Z,5.23
2018-10-19T06:30:40.121Z,5.23
2018-10-19T06:31:40.091Z,5.20
2018-10-19T06:32:40.130Z,5.33
2018-10-19T06:33:40.364Z,5.35
2018-10-19T06:34:40.193Z,5.30
2018-10-19T06:35:40.138Z,5.36
2018-10-19T06:36:40.063Z,5.46
2018-10-19T06:37:40.089Z,5.50
2018-10-19T06:38:40.018Z,5.46
2018-10-19T06:39:40.048Z,5.43
2018-10-19T06:40:40.066Z,5.57
2018-10-19T06:41:39.989Z,5.54
2018-10-19T06:42:40.078Z,5.51
2018-10-19T06:43:39.968Z,5.51
2018-10-19T06:44:40.002Z,5.57
2018-10-19T06:45:39.948Z,5.53
2018-10-19T06:46:40.041Z,5.46
2018-10-19T06:47:39.991Z,5.41
2018-10-19T06:48:39.911Z,5.47
2018-10-19T06:49:39.908Z,5.56
2018-10-19T06:50:39.909Z,5.57
2018-10-19T06:51:39.885Z,5.54
2018-10-19T06:52:39.901Z,5.54
2018-10-19T06:53:39.891Z,5.54
2018-10-19T06:54:39.849Z,5.51
2018-10-19T06:55:39.842Z,5.51
2018-10-19T06:56:39.827Z,5.61
2018-10-19T06:57:39.848Z,5.50
2018-10-19T06:58:39.811Z,5.54
2018-10-19T06:59:39.823Z,5.68
2018-10-19T07:00:39.788Z,5.66
2018-10-19T07:01:39.777Z,5.54
2018-10-19T07:02:39.839Z,5.57
2018-10-19T07:03:39.754Z,5.54
2018-10-19T07:04:39.745Z,5.61
2018-10-19T07:05:39.786Z,5.54
2018-10-19T07:06:39.753Z,5.53
2018-10-19T07:07:39.745Z,5.54
2018-10-19T07:08:39.702Z,5.53
2018-10-19T07:09:39.693Z,5.50
2018-10-19T07:10:39.680Z,5.51
2018-10-19T07:11:39.673Z,5.57
2018-10-19T07:12:39.708Z,5.53
2018-10-19T07:13:39.678Z,5.54
2018-10-19T07:14:39.645Z,5.61
2018-10-19T07:15:39.631Z,5.65
2018-10-19T07:16:39.619Z,5.62
2018-10-19T07:17:39.650Z,5.68
2018-10-19T07:18:39.627Z,5.75
2018-10-19T07:19:39.591Z,5.71
2018-10-19T07:20:39.577Z,5.75
2018-10-19T07:21:39.723Z,5.76
2018-10-19T07:22:39.593Z,5.80
2018-10-19T07:23:39.638Z,5.86
2018-10-19T07:24:39.613Z,5.87
2018-10-19T07:25:39.539Z,5.86
2018-10-19T07:26:39.522Z,5.91
2018-10-19T07:27:39.536Z,5.91
2018-10-19T07:28:39.493Z,5.84
2018-10-19T07:29:39.645Z,5.91
2018-10-19T07:30:39.509Z,5.91
2018-10-19T07:31:39.463Z,5.97
2018-10-19T07:32:39.484Z,5.98
2018-10-19T07:33:39.442Z,6.02
2018-10-19T07:34:39.457Z,5.98
2018-10-19T07:35:39.421Z,5.99
2018-10-19T07:36:39.415Z,5.93
2018-10-19T07:37:39.431Z,5.93
2018-10-19T07:38:39.422Z,5.98
2018-10-19T07:39:39.378Z,6.04
2018-10-19T07:40:39.369Z,5.99
2018-10-19T07:41:39.370Z,5.99
2018-10-19T07:42:39.347Z,6.01
2018-10-19T07:43:39.392Z,6.01
2018-10-19T07:44:39.349Z,6.01
2018-10-19T07:45:39.324Z,6.04
2018-10-19T07:46:39.304Z,5.93
2018-10-19T07:47:39.400Z,5.99
2018-10-19T07:48:39.316Z,5.91
2018-10-19T07:49:39.305Z,6.01
2018-10-19T07:50:39.267Z,6.01
2018-10-19T07:51:39.251Z,5.97
2018-10-19T07:52:39.248Z,6.07
2018-10-19T07:53:39.259Z,6.02
2018-10-19T07:54:39.220Z,6.11
2018-10-19T07:55:39.234Z,6.09
2018-10-19T07:56:39.199Z,6.12
2018-10-19T07:57:39.189Z,6.09
2018-10-19T07:58:39.212Z,6.08
2018-10-19T07:59:39.167Z,6.07
2018-10-19T08:00:39.168Z,6.22
2018-10-19T08:01:39.154Z,6.26
2018-10-19T08:02:39.147Z,6.26
2018-10-19T08:03:39.157Z,6.38
2018-10-19T08:04:39.117Z,6.36
2018-10-19T08:05:39.103Z,6.36
2018-10-19T08:06:39.096Z,6.51
2018-10-19T08:07:39.093Z,6.44
2018-10-19T08:08:39.101Z,6.35
2018-10-19T08:09:39.060Z,6.35
2018-10-19T08:10:39.051Z,6.44
2018-10-19T08:11:39.154Z,6.56
2018-10-19T08:12:39.032Z,6.51
2018-10-19T08:13:39.054Z,6.62
2018-10-19T08:14:39.065Z,6.52
2018-10-19T08:15:39.015Z,6.56
2018-10-19T08:16:39.037Z,6.54
2018-10-19T08:17:38.979Z,6.60
2018-10-19T08:18:39.048Z,6.62
2018-10-19T08:19:38.955Z,6.59
2018-10-19T08:20:38.945Z,6.56
2018-10-19T08:21:38.961Z,6.59
2018-10-19T08:22:38.923Z,6.63
2018-10-19T08:23:38.944Z,6.67
2018-10-19T08:24:38.902Z,6.70
2018-10-19T08:25:38.933Z,6.78
2018-10-19T08:26:38.897Z,6.81
2018-10-19T08:27:38.915Z,6.84
2018-10-19T08:28:38.887Z,6.77
2018-10-19T08:29:38.854Z,6.87
2018-10-19T08:30:38.839Z,6.92
2018-10-19T08:31:38.829Z,6.97
2018-10-19T08:32:38.821Z,6.99
2018-10-19T08:33:38.850Z,6.97
2018-10-19T08:34:38.832Z,7.10
2018-10-19T08:35:38.784Z,6.97
2018-10-19T08:36:38.774Z,7.00
2018-10-19T08:37:38.814Z,7.21
2018-10-19T08:38:38.783Z,7.25
2018-10-19T08:39:38.743Z,7.28
2018-10-19T08:40:38.737Z,7.24
2018-10-19T08:41:38.803Z,7.20
2018-10-19T08:42:38.719Z,7.29
2018-10-19T08:43:38.826Z,7.29
2018-10-19T08:44:38.691Z,7.31
2018-10-19T08:45:38.680Z,7.31
2018-10-19T08:46:38.676Z,7.35
2018-10-19T08:47:38.664Z,7.29
2018-10-19T08:48:38.706Z,7.35
2018-10-19T08:49:38.650Z,7.29
2018-10-19T08:50:38.636Z,7.33
2018-10-19T08:51:38.614Z,7.29
2018-10-19T08:52:38.623Z,7.33
2018-10-19T08:53:38.712Z,7.36
2018-10-19T08:54:38.644Z,7.42
2018-10-19T08:55:38.610Z,7.42
2018-10-19T08:56:38.559Z,7.54
2018-10-19T08:57:38.597Z,7.53
2018-10-19T08:58:38.593Z,7.61
2018-10-19T08:59:38.532Z,7.58
2018-10-19T09:00:38.518Z,7.61
2018-10-19T09:01:38.519Z,7.67
2018-10-19T09:02:38.525Z,7.66
2018-10-19T09:03:38.539Z,7.76
2018-10-19T09:04:38.509Z,7.87
2018-10-19T09:05:38.480Z,7.87
2018-10-19T09:06:38.459Z,7.93
2018-10-19T09:07:38.467Z,7.85
2018-10-19T09:08:38.453Z,7.95
2018-10-19T09:09:38.491Z,7.95
2018-10-19T09:10:38.453Z,8.01
2018-10-19T09:11:38.458Z,8.06
2018-10-19T09:12:38.446Z,8.08
2018-10-19T09:13:38.426Z,8.06
2018-10-19T09:14:38.400Z,8.13
2018-10-19T09:15:38.373Z,8.08
2018-10-19T09:16:38.358Z,8.13
2018-10-19T09:17:38.349Z,8.20
2018-10-19T09:18:38.401Z,8.20
2018-10-19T09:19:38.348Z,8.24
2018-10-19T09:20:38.429Z,8.30
2018-10-19T09:21:38.314Z,8.36
2018-10-19T09:22:38.440Z,8.30
2018-10-19T09:23:38.297Z,8.33
2018-10-19T09:24:38.319Z,8.44
2018-10-19T09:25:38.258Z,8.46
2018-10-19T09:26:38.269Z,8.52
2018-10-19T09:27:38.234Z,8.53
2018-10-19T09:28:38.220Z,8.53
2018-10-19T09:29:38.313Z,8.55
2018-10-19T09:30:38.201Z,8.58
2018-10-19T09:31:38.190Z,8.53
2018-10-19T09:32:38.183Z,8.66
2018-10-19T09:33:38.168Z,8.56
2018-10-19T09:34:38.212Z,8.49
2018-10-19T09:35:38.216Z,8.67
2018-10-19T09:36:38.191Z,8.76
2018-10-19T09:37:38.124Z,8.73
2018-10-19T09:38:39.101Z,8.88
2018-10-19T09:39:38.140Z,8.85
2018-10-19T09:40:38.160Z,8.94
2018-10-19T09:41:38.082Z,8.94
2018-10-19T09:42:38.076Z,9.03
2018-10-19T09:43:38.065Z,9.08
2018-10-19T09:44:38.091Z,9.11
2018-10-19T09:45:38.045Z,9.18
2018-10-19T09:46:38.154Z,9.11
2018-10-19T09:47:38.076Z,9.23
2018-10-19T09:48:38.011Z,9.31
2018-10-19T09:49:38.051Z,9.36
2018-10-19T09:50:38.013Z,9.44
2018-10-19T09:51:37.979Z,9.40
2018-10-19T09:52:38.049Z,9.55
2018-10-19T09:53:37.957Z,9.54
2018-10-19T09:54:37.974Z,9.64
2018-10-19T09:55:38.014Z,9.66
2018-10-19T09:56:37.930Z,9.69
2018-10-19T09:57:37.931Z,9.77
2018-10-19T09:58:37.939Z,9.82
2018-10-19T09:59:37.925Z,9.83
2018-10-19T10:00:37.889Z,9.89
2018-10-19T10:01:37.876Z,9.94
2018-10-19T10:02:37.859Z,10.04
2018-10-19T10:03:37.854Z,10.07
2018-10-19T10:04:37.871Z,10.17
2018-10-19T10:05:37.827Z,10.20
2018-10-19T10:06:37.837Z,10.23
2018-10-19T10:07:37.806Z,10.31
2018-10-19T10:08:37.797Z,10.31
2018-10-19T10:09:37.818Z,10.30
2018-10-19T10:10:37.773Z,10.48
2018-10-19T10:11:37.775Z,10.54
2018-10-19T10:12:37.773Z,10.63
2018-10-19T10:13:37.749Z,10.59
2018-10-19T10:14:37.799Z,10.68
2018-10-19T10:15:37.841Z,10.71
2018-10-19T10:16:37.708Z,10.84
2018-10-19T10:17:37.707Z,10.79
2018-10-19T10:18:37.726Z,10.87
2018-10-19T10:19:37.682Z,10.92
2018-10-19T10:20:37.701Z,11.02
2018-10-19T10:21:37.658Z,11.00
2018-10-19T10:22:37.663Z,11.07
2018-10-19T10:23:37.639Z,11.11
2018-10-19T10:24:37.665Z,11.14
2018-10-19T10:25:37.674Z,11.19
2018-10-19T10:26:37.603Z,11.35
2018-10-19T10:27:37.594Z,11.30
2018-10-19T10:28:37.592Z,11.43
2018-10-19T10:29:37.577Z,11.37
2018-10-19T10:30:37.667Z,11.44
2018-10-19T10:31:37.565Z,11.37
2018-10-19T10:32:37.540Z,11.54
2018-10-19T10:33:37.530Z,11.60
2018-10-19T10:34:37.523Z,11.69
2018-10-19T10:35:37.541Z,11.62
2018-10-19T10:36:37.534Z,11.65
2018-10-19T10:37:37.490Z,11.70
2018-10-19T10:38:37.543Z,11.70
2018-10-19T10:39:37.470Z,11.78
2018-10-19T10:40:37.485Z,11.72
2018-10-19T10:41:37.448Z,11.78
2018-10-19T10:42:37.462Z,11.87
2018-10-19T10:43:37.434Z,11.90
2018-10-19T10:44:37.430Z,11.94
2018-10-19T10:45:37.433Z,11.97
2018-10-19T10:46:37.400Z,11.99
2018-10-19T10:47:37.385Z,12.07
2018-10-19T10:48:37.371Z,12.09
2018-10-19T10:49:37.360Z,12.15
2018-10-19T10:50:37.447Z,12.31
2018-10-19T10:51:37.343Z,12.32
2018-10-19T10:52:37.328Z,12.42
2018-10-19T10:53:37.325Z,12.46
2018-10-19T10:54:37.309Z,12.54
2018-10-19T10:55:37.328Z,12.53
2018-10-19T10:56:37.317Z,12.60
2018-10-19T10:57:37.277Z,12.68
2018-10-19T10:58:37.281Z,12.70
2018-10-19T10:59:37.256Z,12.76
2018-10-19T11:00:37.272Z,12.76
2018-10-19T11:01:37.234Z,12.78
2018-10-19T11:02:37.223Z,13.04
2018-10-19T11:03:37.264Z,13.23
2018-10-19T11:04:37.202Z,13.85
2018-10-19T11:05:37.218Z,14.45
2018-10-19T11:06:37.179Z,15.17
2018-10-19T11:07:37.297Z,15.70
2018-10-19T11:08:37.160Z,16.33
2018-10-19T11:09:37.160Z,16.91
2018-10-19T11:10:37.163Z,17.16
2018-10-19T11:11:37.124Z,17.29
2018-10-19T11:12:37.112Z,17.34
2018-10-19T11:13:37.103Z,17.46
2018-10-19T11:14:37.092Z,17.63
2018-10-19T11:15:37.151Z,17.63
2018-10-19T11:16:37.077Z,17.65
2018-10-19T11:17:37.070Z,17.67
2018-10-19T11:18:37.050Z,17.64
2018-10-19T11:19:37.039Z,17.26
2018-10-19T11:20:37.065Z,17.20
2018-10-19T11:21:37.044Z,17.24
2018-10-19T11:22:37.007Z,17.54
2018-10-19T11:23:37.008Z,17.51
2018-10-19T11:24:36.996Z,17.83
2018-10-19T11:25:37.043Z,17.95
2018-10-19T11:26:36.965Z,18.01
2018-10-19T11:27:36.970Z,18.03
2018-10-19T11:28:36.942Z,17.89
2018-10-19T11:29:36.934Z,17.68
2018-10-19T11:30:36.991Z,17.94
2018-10-19T11:31:36.916Z,17.95
2018-10-19T11:32:36.903Z,17.92
2018-10-19T11:33:37.010Z,17.95
2018-10-19T11:34:36.880Z,17.95
2018-10-19T11:35:36.947Z,17.78
2018-10-19T11:36:36.861Z,17.64
2018-10-19T11:37:36.905Z,17.78
2018-10-19T11:38:36.844Z,17.85
2018-10-19T11:39:36.916Z,17.68
2018-10-19T11:40:36.822Z,17.59
2018-10-19T11:41:36.834Z,17.51
2018-10-19T11:42:36.803Z,17.27
2018-10-19T11:43:36.786Z,17.20
2018-10-19T11:44:36.774Z,17.27
2018-10-19T11:45:36.786Z,17.46
2018-10-19T11:46:36.783Z,17.46
2018-10-19T11:47:36.742Z,17.80
2018-10-19T11:48:36.746Z,18.15
2018-10-19T11:49:36.721Z,18.22
2018-10-19T11:50:36.714Z,18.38
2018-10-19T11:51:36.753Z,18.65
2018-10-19T11:52:36.685Z,18.84
2018-10-19T11:53:36.681Z,18.86
2018-10-19T11:54:36.683Z,18.40
2018-10-19T11:55:36.665Z,18.34
2018-10-19T11:56:36.677Z,18.41
2018-10-19T11:57:36.656Z,18.53
2018-10-19T11:58:36.621Z,18.52
2018-10-19T11:59:36.613Z,18.38
2018-10-19T12:00:36.601Z,18.35
2018-10-19T12:01:36.627Z,18.43
2018-10-19T12:02:36.579Z,18.44
2018-10-19T12:03:36.640Z,18.84
2018-10-19T12:04:36.558Z,19.14
2018-10-19T12:05:36.549Z,19.14
2018-10-19T12:06:36.581Z,19.14
2018-10-19T12:07:36.558Z,19.21
2018-10-19T12:08:36.516Z,19.31
2018-10-19T12:09:36.505Z,19.19
2018-10-19T12:10:36.530Z,18.98
2018-10-19T12:11:36.515Z,19.07
2018-10-19T12:12:36.474Z,18.98
2018-10-19T12:13:36.470Z,19.14
2018-10-19T12:14:36.460Z,19.39
2018-10-19T12:15:36.506Z,19.19
2018-10-19T12:16:36.555Z,18.89
2018-10-19T12:17:36.436Z,18.40
2018-10-19T12:18:36.434Z,18.19
2018-10-19T12:19:36.398Z,18.41
2018-10-19T12:20:36.402Z,18.92
2018-10-19T12:21:36.428Z,18.84
2018-10-19T12:22:36.367Z,18.35
2018-10-19T12:23:36.362Z,18.03
2018-10-19T12:24:36.345Z,18.23
2018-10-19T12:25:36.354Z,18.83
2018-10-19T12:26:36.353Z,19.37
2018-10-19T12:27:36.345Z,19.79
2018-10-19T12:28:36.329Z,19.94
2018-10-19T12:29:36.335Z,20.09
2018-10-19T12:30:36.284Z,20.40
2018-10-19T12:31:36.301Z,21.05
2018-10-19T12:32:36.263Z,21.36
2018-10-19T12:33:36.272Z,21.57
2018-10-19T12:34:36.241Z,21.62
2018-10-19T12:35:36.424Z,21.79
2018-10-19T12:36:36.260Z,21.30
2018-10-19T12:37:36.210Z,20.80
2018-10-19T12:38:36.198Z,20.82
2018-10-19T12:39:36.210Z,20.66
2018-10-19T12:40:36.180Z,21.02
2018-10-19T12:41:36.202Z,21.22
2018-10-19T12:42:36.157Z,21.07
2018-10-19T12:43:36.144Z,21.11
2018-10-19T12:44:36.253Z,20.82
2018-10-19T12:45:36.140Z,20.81
2018-10-19T12:46:36.146Z,20.78
2018-10-19T12:47:36.131Z,20.87
2018-10-19T12:48:36.164Z,20.16
2018-10-19T12:49:36.085Z,19.34
2018-10-19T12:50:36.082Z,18.86
2018-10-19T12:51:36.091Z,18.90
2018-10-19T12:52:36.141Z,19.11
2018-10-19T12:53:36.047Z,18.99
2018-10-19T12:54:36.030Z,19.07
2018-10-19T12:55:36.034Z,18.78
2018-10-19T12:56:36.056Z,18.59
2018-10-19T12:57:36.187Z,18.56
2018-10-19T12:58:35.989Z,18.34
2018-10-19T12:59:36.036Z,18.08
2018-10-19T13:00:35.991Z,17.85
2018-10-19T13:01:35.979Z,17.86
2018-10-19T13:02:35.967Z,17.52
2018-10-19T13:03:36.028Z,17.44
2018-10-19T13:04:36.057Z,17.38
2018-10-19T13:05:35.916Z,17.56
2018-10-19T13:06:35.930Z,17.52
2018-10-19T13:07:35.917Z,17.57
2018-10-19T13:08:35.879Z,17.98
2018-10-19T13:09:35.881Z,18.13
2018-10-19T13:10:35.878Z,18.35
2018-10-19T13:11:35.893Z,18.71
2018-10-19T13:12:35.833Z,18.71